Time;durP1;ratioP1;P1;durP2;ratioP2;P2;SDS_P1;SDS_P2;PMS_P1;PMS_P2;Temp;Humidity;BMP_temperature;BMP_pressure;BME280_temperature;BME280_humidity;BME280_pressure;Samples;Min_cycle;Max_cycle;Signal;HPM_P1;HPM_P2
2023/08/20 00:01:09;;;;;;;0.60;0.52;;;;;;;;;;5015043;28;20041;-64
2023/08/20 00:03:36;;;;;;;0.73;0.55;;;;;;;;;;5014252;28;20045;-64
2023/08/20 00:06:03;;;;;;;0.75;0.65;;;;;;;;;;5014214;28;20541;-64
2023/08/20 00:08:30;;;;;;;0.77;0.68;;;;;;;;;;5017146;28;20384;-64
2023/08/20 00:10:56;;;;;;;1.30;0.85;;;;;;;;;;5017313;28;20144;-65
2023/08/20 00:13:22;;;;;;;0.75;0.52;;;;;;;;;;5015325;28;20041;-65
2023/08/20 00:15:49;;;;;;;0.60;0.60;;;;;;;;;;5013239;28;20036;-65
2023/08/20 00:18:15;;;;;;;0.52;0.50;;;;;;;;;;5013433;28;20403;-65
2023/08/20 00:20:41;;;;;;;0.63;0.40;;;;;;;;;;5016582;28;20045;-65
2023/08/20 00:23:07;;;;;;;1.30;0.50;;;;;;;;;;5015742;28;20046;-65
2023/08/20 00:25:34;;;;;;;0.50;0.50;;;;;;;;;;5014809;28;20041;-64
2023/08/20 00:28:00;;;;;;;0.73;0.45;;;;;;;;;;5013967;28;20056;-64
2023/08/20 00:30:26;;;;;;;0.57;0.50;;;;;;;;;;5012867;28;20037;-64
2023/08/20 00:32:52;;;;;;;0.52;0.40;;;;;;;;;;5016985;28;20049;-64
2023/08/20 00:35:18;;;;;;;1.48;0.70;;;;;;;;;;5016626;28;20037;-64
2023/08/20 00:37:44;;;;;;;1.00;0.52;;;;;;;;;;5014530;28;20052;-64
2023/08/20 00:40:11;;;;;;;1.58;0.60;;;;;;;;;;5013310;28;20044;-64
2023/08/20 00:42:38;;;;;;;0.47;0.40;;;;;;;;;;5013504;28;20125;-64
2023/08/20 00:45:04;;;;;;;0.80;0.45;;;;;;;;;;5015763;28;20112;-64
2023/08/20 00:47:30;;;;;;;0.68;0.68;;;;;;;;;;5010538;28;20088;-65
2023/08/20 00:49:56;;;;;;;0.90;0.57;;;;;;;;;;5014058;28;20050;-64
2023/08/20 00:52:22;;;;;;;0.60;0.47;;;;;;;;;;5016181;28;20099;-64
2023/08/20 00:54:48;;;;;;;0.85;0.75;;;;;;;;;;5016019;28;20063;-64
2023/08/20 00:57:15;;;;;;;0.40;0.40;;;;;;;;;;5011944;28;20046;-64
2023/08/20 00:59:42;;;;;;;0.55;0.40;;;;;;;;;;5012927;28;20413;-64
2023/08/20 01:02:08;;;;;;;0.60;0.40;;;;;;;;;;5014556;28;20144;-64
2023/08/20 01:04:34;;;;;;;0.60;0.52;;;;;;;;;;5015342;28;20113;-64
2023/08/20 01:07:05;;;;;;;1.65;0.50;;;;;;;;;;5016498;28;20049;-64
2023/08/20 01:09:49;;;;;;;0.95;0.50;;;;;;;;;;5013962;28;20121;-64
2023/08/20 01:12:17;;;;;;;1.75;0.68;;;;;;;;;;5013268;28;20065;-64
2023/08/20 01:14:43;;;;;;;0.50;0.50;;;;;;;;;;5016238;28;20120;-64
2023/08/20 01:17:09;;;;;;;0.88;0.50;;;;;;;;;;5015832;28;20099;-64
2023/08/20 01:19:35;;;;;;;0.40;0.40;;;;;;;;;;5012245;28;20385;-64
2023/08/20 01:22:20;;;;;;;1.40;0.55;;;;;;;;;;5013050;28;20042;-65
2023/08/20 01:25:05;;;;;;;0.80;0.45;;;;;;;;;;5012991;28;20132;-65
2023/08/20 01:27:35;;;;;;;0.60;0.40;;;;;;;;;;5012938;28;20189;-64
2023/08/20 01:30:03;;;;;;;0.70;0.52;;;;;;;;;;5016104;28;20504;-65
2023/08/20 01:32:29;;;;;;;2.13;0.70;;;;;;;;;;5017962;28;20050;-65
2023/08/20 01:34:56;;;;;;;0.43;0.32;;;;;;;;;;5024805;28;20041;-64
2023/08/20 01:37:22;;;;;;;0.63;0.55;;;;;;;;;;5016566;28;20080;-64
2023/08/20 01:39:48;;;;;;;0.52;0.40;;;;;;;;;;5016272;28;20065;-64
2023/08/20 01:42:14;;;;;;;1.25;0.45;;;;;;;;;;5016192;28;20054;-64
2023/08/20 01:44:40;;;;;;;1.27;0.50;;;;;;;;;;5016499;28;20077;-64
2023/08/20 01:47:06;;;;;;;0.43;0.38;;;;;;;;;;5018787;28;20120;-64
2023/08/20 01:49:33;;;;;;;0.30;0.30;;;;;;;;;;5020652;28;20566;-64
2023/08/20 01:51:59;;;;;;;1.52;0.90;;;;;;;;;;5018867;28;20128;-64
2023/08/20 01:54:26;;;;;;;0.68;0.50;;;;;;;;;;5015860;28;20564;-64
2023/08/20 01:56:52;;;;;;;1.10;0.40;;;;;;;;;;5016025;28;20065;-64
2023/08/20 01:59:18;;;;;;;0.40;0.40;;;;;;;;;;5019480;28;20041;-64
2023/08/20 02:01:44;;;;;;;0.60;0.60;;;;;;;;;;5018710;28;20030;-64
2023/08/20 02:04:10;;;;;;;0.50;0.50;;;;;;;;;;5017457;28;20033;-64
2023/08/20 02:06:36;;;;;;;0.57;0.50;;;;;;;;;;5016378;28;20077;-65
2023/08/20 02:09:03;;;;;;;0.32;0.32;;;;;;;;;;5023595;28;20132;-65
2023/08/20 02:11:32;;;;;;;0.60;0.50;;;;;;;;;;5019498;28;20053;-65
2023/08/20 02:13:58;;;;;;;0.73;0.60;;;;;;;;;;5019875;28;20049;-64
2023/08/20 02:16:24;;;;;;;0.43;0.43;;;;;;;;;;5016525;28;20080;-65
2023/08/20 02:18:50;;;;;;;0.40;0.40;;;;;;;;;;5016028;28;20100;-65
2023/08/20 02:21:16;;;;;;;0.40;0.40;;;;;;;;;;5015342;28;20046;-64
2023/08/20 02:23:42;;;;;;;0.70;0.50;;;;;;;;;;5018846;28;20044;-64
2023/08/20 02:26:08;;;;;;;0.30;0.30;;;;;;;;;;5018344;28;20746;-65
2023/08/20 02:28:34;;;;;;;0.40;0.40;;;;;;;;;;5016237;28;20049;-64
2023/08/20 02:31:04;;;;;;;0.40;0.40;;;;;;;;;;5015889;28;20104;-64
2023/08/20 02:33:30;;;;;;;1.20;0.57;;;;;;;;;;5016442;28;20576;-64
2023/08/20 02:36:01;;;;;;;0.65;0.40;;;;;;;;;;5017993;28;20040;-65
2023/08/20 02:38:27;;;;;;;0.52;0.47;;;;;;;;;;5018572;28;20038;-65
2023/08/20 02:40:53;;;;;;;1.13;0.73;;;;;;;;;;5018864;28;20034;-65
2023/08/20 02:43:19;;;;;;;1.15;0.60;;;;;;;;;;5017687;28;20759;-64
2023/08/20 02:45:45;;;;;;;0.57;0.30;;;;;;;;;;5017446;28;20048;-64
2023/08/20 02:48:11;;;;;;;0.82;0.50;;;;;;;;;;5014671;28;20049;-64
2023/08/20 02:50:37;;;;;;;0.95;0.57;;;;;;;;;;5014400;28;20042;-64
2023/08/20 02:53:03;;;;;;;1.83;0.50;;;;;;;;;;5017722;28;20092;-64
2023/08/20 02:55:30;;;;;;;0.60;0.47;;;;;;;;;;5019033;28;20049;-64
2023/08/20 02:57:56;;;;;;;1.00;0.63;;;;;;;;;;5016963;28;20095;-64
2023/08/20 03:00:22;;;;;;;1.00;0.85;;;;;;;;;;5015409;28;20046;-64
2023/08/20 03:02:48;;;;;;;0.55;0.50;;;;;;;;;;5015344;28;20041;-64
2023/08/20 03:05:14;;;;;;;1.65;1.02;;;;;;;;;;5014975;28;20582;-65
2023/08/20 03:07:40;;;;;;;1.40;0.75;;;;;;;;;;5018180;28;20041;-64
2023/08/20 03:10:06;;;;;;;1.00;0.73;;;;;;;;;;5017954;28;20112;-64
2023/08/20 03:12:33;;;;;;;0.50;0.50;;;;;;;;;;5014894;28;20037;-64
2023/08/20 03:14:59;;;;;;;0.77;0.60;;;;;;;;;;5015033;28;20503;-64
2023/08/20 03:17:25;;;;;;;0.73;0.70;;;;;;;;;;5014515;28;20504;-64
2023/08/20 03:19:56;;;;;;;0.55;0.50;;;;;;;;;;5017596;28;20038;-64
2023/08/20 03:22:22;;;;;;;0.80;0.52;;;;;;;;;;5015172;28;20107;-64
2023/08/20 03:24:48;;;;;;;0.47;0.47;;;;;;;;;;5014089;28;20077;-64
2023/08/20 03:27:14;;;;;;;0.35;0.32;;;;;;;;;;5014389;28;20077;-64
2023/08/20 03:29:40;;;;;;;0.40;0.40;;;;;;;;;;5016759;28;20137;-64
2023/08/20 03:32:06;;;;;;;0.57;0.40;;;;;;;;;;5016874;28;20127;-64
2023/08/20 03:34:32;;;;;;;0.73;0.60;;;;;;;;;;5017674;28;20045;-64
2023/08/20 03:36:58;;;;;;;0.68;0.68;;;;;;;;;;5014657;28;20045;-64
2023/08/20 03:39:24;;;;;;;0.82;0.68;;;;;;;;;;5013321;28;20415;-64
2023/08/20 03:41:53;;;;;;;1.05;0.90;;;;;;;;;;5022844;28;20080;-64
2023/08/20 03:44:20;;;;;;;1.60;0.95;;;;;;;;;;5014394;28;20045;-64
2023/08/20 03:46:46;;;;;;;1.42;0.80;;;;;;;;;;5014366;28;20763;-64
2023/08/20 03:49:12;;;;;;;0.60;0.60;;;;;;;;;;5017094;28;20406;-64
2023/08/20 03:51:38;;;;;;;0.68;0.68;;;;;;;;;;5017096;28;20387;-65
2023/08/20 03:54:04;;;;;;;0.68;0.63;;;;;;;;;;5013650;28;20116;-64
2023/08/20 03:56:30;;;;;;;0.70;0.70;;;;;;;;;;5014818;28;20050;-64
2023/08/20 03:58:56;;;;;;;0.50;0.40;;;;;;;;;;5015258;28;20571;-64
2023/08/20 04:01:22;;;;;;;0.80;0.70;;;;;;;;;;5016695;28;20087;-64
2023/08/20 04:03:48;;;;;;;0.50;0.50;;;;;;;;;;5017226;28;20037;-64
2023/08/20 04:06:14;;;;;;;0.95;0.70;;;;;;;;;;5014730;28;20045;-64
2023/08/20 04:08:41;;;;;;;1.42;0.90;;;;;;;;;;5013029;28;20065;-64
2023/08/20 04:11:07;;;;;;;1.00;0.80;;;;;;;;;;5013679;28;20121;-64
2023/08/20 04:13:33;;;;;;;0.63;0.63;;;;;;;;;;5017015;28;20407;-64
2023/08/20 04:15:59;;;;;;;0.70;0.70;;;;;;;;;;5016667;28;20049;-64
2023/08/20 04:18:25;;;;;;;0.85;0.73;;;;;;;;;;5014426;28;20091;-64
2023/08/20 04:20:52;;;;;;;0.98;0.60;;;;;;;;;;5013261;28;20135;-64
2023/08/20 04:23:18;;;;;;;0.82;0.50;;;;;;;;;;5013567;28;20645;-65
2023/08/20 04:25:45;;;;;;;1.40;0.73;;;;;;;;;;5016720;28;20052;-65
2023/08/20 04:28:13;;;;;;;1.50;0.90;;;;;;;;;;5015655;28;20047;-65
2023/08/20 04:30:39;;;;;;;0.70;0.70;;;;;;;;;;5014516;28;20049;-64
2023/08/20 04:33:05;;;;;;;0.80;0.57;;;;;;;;;;5013122;28;20037;-64
2023/08/20 04:35:32;;;;;;;0.60;0.60;;;;;;;;;;5013743;28;20096;-64
2023/08/20 04:37:58;;;;;;;0.68;0.60;;;;;;;;;;5016693;28;20051;-64
2023/08/20 04:40:24;;;;;;;0.63;0.63;;;;;;;;;;5016347;28;20491;-64
2023/08/20 04:42:51;;;;;;;0.57;0.57;;;;;;;;;;5013816;28;20039;-64
2023/08/20 04:45:20;;;;;;;0.98;0.68;;;;;;;;;;5013190;28;20121;-64
2023/08/20 04:47:47;;;;;;;0.73;0.63;;;;;;;;;;5013999;28;20050;-64
2023/08/20 04:50:13;;;;;;;1.95;1.00;;;;;;;;;;5015751;28;20033;-64
2023/08/20 04:52:39;;;;;;;0.70;0.68;;;;;;;;;;5016288;28;20496;-64
2023/08/20 04:55:09;;;;;;;0.82;0.60;;;;;;;;;;5013465;28;20064;-64
2023/08/20 04:57:35;;;;;;;0.70;0.70;;;;;;;;;;5012560;28;20057;-64
2023/08/20 05:00:01;;;;;;;1.40;0.55;;;;;;;;;;5015209;28;20045;-64
2023/08/20 05:02:27;;;;;;;1.70;0.80;;;;;;;;;;5016605;28;20469;-64
2023/08/20 05:04:54;;;;;;;1.65;0.73;;;;;;;;;;5016091;28;20045;-64
2023/08/20 05:07:20;;;;;;;0.63;0.50;;;;;;;;;;5012801;28;20504;-64
2023/08/20 05:09:46;;;;;;;1.23;0.90;;;;;;;;;;5013268;28;20096;-64
2023/08/20 05:12:12;;;;;;;0.60;0.60;;;;;;;;;;5013574;28;20148;-64
2023/08/20 05:14:38;;;;;;;0.40;0.40;;;;;;;;;;5020071;28;20033;-64
2023/08/20 05:17:04;;;;;;;0.77;0.55;;;;;;;;;;5012977;28;20746;-65
2023/08/20 05:19:31;;;;;;;0.35;0.35;;;;;;;;;;5016165;28;20041;-65
2023/08/20 05:21:58;;;;;;;0.63;0.40;;;;;;;;;;5016416;28;20699;-64
2023/08/20 05:24:24;;;;;;;0.40;0.40;;;;;;;;;;5014188;28;20124;-64
2023/08/20 05:27:04;;;;;;;0.47;0.40;;;;;;;;;;5012941;28;20057;-64
2023/08/20 05:29:30;;;;;;;0.40;0.40;;;;;;;;;;5014520;28;20073;-64
2023/08/20 05:31:56;;;;;;;0.47;0.40;;;;;;;;;;5015467;28;20037;-64
2023/08/20 05:34:22;;;;;;;0.40;0.40;;;;;;;;;;5015624;28;20542;-64
2023/08/20 05:36:48;;;;;;;0.20;0.20;;;;;;;;;;5013359;28;20050;-64
2023/08/20 05:39:14;;;;;;;0.30;0.30;;;;;;;;;;5012037;28;20050;-65
2023/08/20 05:41:40;;;;;;;0.50;0.20;;;;;;;;;;5013367;28;20042;-65
2023/08/20 05:44:06;;;;;;;0.95;0.50;;;;;;;;;;5015272;28;20816;-65
2023/08/20 05:46:32;;;;;;;0.32;0.32;;;;;;;;;;5015421;28;20049;-65
2023/08/20 05:48:58;;;;;;;0.30;0.30;;;;;;;;;;5012957;28;20038;-64
2023/08/20 05:51:24;;;;;;;0.30;0.30;;;;;;;;;;5012233;28;20603;-64
2023/08/20 05:53:50;;;;;;;0.40;0.40;;;;;;;;;;5012637;28;20261;-64
2023/08/20 05:56:16;;;;;;;0.65;0.43;;;;;;;;;;5014845;28;20068;-64
2023/08/20 05:58:43;;;;;;;2.60;0.70;;;;;;;;;;5015636;28;20041;-64
2023/08/20 06:01:09;;;;;;;0.93;0.60;;;;;;;;;;5012550;28;20053;-64
2023/08/20 06:03:35;;;;;;;0.50;0.50;;;;;;;;;;5012596;28;20049;-64
2023/08/20 06:06:02;;;;;;;0.20;0.20;;;;;;;;;;5013142;28;20554;-64
2023/08/20 06:08:28;;;;;;;0.40;0.40;;;;;;;;;;5015075;28;20045;-64
2023/08/20 06:10:54;;;;;;;0.45;0.20;;;;;;;;;;5015800;28;20045;-64
2023/08/20 06:13:20;;;;;;;0.60;0.20;;;;;;;;;;5015051;28;20108;-64
2023/08/20 06:15:46;;;;;;;0.30;0.30;;;;;;;;;;5015081;28;20549;-64
2023/08/20 06:18:12;;;;;;;0.22;0.20;;;;;;;;;;5017588;28;20049;-64
2023/08/20 06:20:38;;;;;;;0.30;0.30;;;;;;;;;;5015571;28;20030;-64
2023/08/20 06:23:04;;;;;;;0.32;0.30;;;;;;;;;;5016045;28;20049;-65
2023/08/20 06:25:30;;;;;;;0.60;0.40;;;;;;;;;;5017874;28;20133;-65
2023/08/20 06:27:56;;;;;;;0.57;0.40;;;;;;;;;;5018298;28;20083;-65
2023/08/20 06:30:22;;;;;;;0.47;0.30;;;;;;;;;;5018147;28;20087;-65
2023/08/20 06:32:48;;;;;;;0.35;0.28;;;;;;;;;;5015507;28;20037;-64
2023/08/20 06:35:14;;;;;;;0.35;0.35;;;;;;;;;;5014896;28;20054;-64
2023/08/20 06:37:41;;;;;;;0.30;0.20;;;;;;;;;;5017255;28;20551;-64
2023/08/20 06:40:07;;;;;;;1.13;0.73;;;;;;;;;;5018468;28;20365;-64
2023/08/20 06:42:33;;;;;;;1.23;0.52;;;;;;;;;;5018741;28;20037;-64
2023/08/20 06:44:59;;;;;;;0.75;0.60;;;;;;;;;;5015516;28;20030;-64
2023/08/20 06:47:26;;;;;;;0.70;0.45;;;;;;;;;;5015170;28;20673;-64
2023/08/20 06:49:52;;;;;;;1.58;0.70;;;;;;;;;;5016414;28;20124;-64
2023/08/20 06:52:18;;;;;;;1.55;1.10;;;;;;;;;;5018255;28;20511;-64
2023/08/20 06:54:44;;;;;;;1.55;0.60;;;;;;;;;;5018199;28;20029;-64
2023/08/20 06:57:11;;;;;;;0.77;0.38;;;;;;;;;;5014319;28;20481;-64
2023/08/20 06:59:37;;;;;;;1.85;1.30;;;;;;;;;;5015508;28;20053;-65
2023/08/20 07:02:03;;;;;;;2.22;0.68;;;;;;;;;;5016909;28;20046;-65
2023/08/20 07:04:29;;;;;;;2.03;1.10;;;;;;;;;;5016387;28;20519;-65
2023/08/20 07:06:55;;;;;;;1.67;1.00;;;;;;;;;;5018427;28;20129;-65
2023/08/20 07:09:21;;;;;;;3.30;1.63;;;;;;;;;;5015144;28;20903;-65
2023/08/20 07:11:47;;;;;;;4.70;1.58;;;;;;;;;;5014278;28;20683;-64
2023/08/20 07:14:13;;;;;;;3.65;1.63;;;;;;;;;;5015769;28;20045;-64
2023/08/20 07:16:39;;;;;;;3.38;1.63;;;;;;;;;;5017377;28;20029;-64
2023/08/20 07:19:05;;;;;;;4.50;1.20;;;;;;;;;;5018145;28;20484;-64
2023/08/20 07:21:31;;;;;;;8.15;2.97;;;;;;;;;;5016031;28;20060;-64
2023/08/20 07:23:57;;;;;;;3.95;2.05;;;;;;;;;;5014120;28;20049;-65
2023/08/20 07:26:23;;;;;;;4.60;1.77;;;;;;;;;;5015217;28;20049;-65
2023/08/20 07:28:56;;;;;;;3.97;1.60;;;;;;;;;;5016582;28;20129;-65
2023/08/20 07:31:22;;;;;;;5.10;2.45;;;;;;;;;;5016874;28;20042;-65
2023/08/20 07:33:49;;;;;;;2.28;1.45;;;;;;;;;;5004561;28;20052;-65
2023/08/20 07:36:15;;;;;;;1.70;0.93;;;;;;;;;;5014124;28;20128;-65
2023/08/20 07:38:42;;;;;;;2.13;1.13;;;;;;;;;;5015051;28;20567;-65
2023/08/20 07:41:09;;;;;;;2.15;1.23;;;;;;;;;;5017224;28;20112;-65
2023/08/20 07:43:35;;;;;;;3.50;1.65;;;;;;;;;;5017671;28;20035;-65
2023/08/20 07:46:01;;;;;;;2.55;0.95;;;;;;;;;;5014382;28;20050;-65
2023/08/20 07:48:27;;;;;;;1.13;0.75;;;;;;;;;;5014389;28;20479;-65
2023/08/20 07:50:53;;;;;;;2.33;1.15;;;;;;;;;;5015834;28;20042;-65
2023/08/20 07:53:19;;;;;;;3.42;1.27;;;;;;;;;;5016594;28;20048;-65
2023/08/20 07:55:45;;;;;;;1.27;0.70;;;;;;;;;;5016726;28;20045;-65
2023/08/20 07:58:11;;;;;;;1.92;1.15;;;;;;;;;;5014036;28;20375;-65
2023/08/20 08:00:37;;;;;;;2.10;0.90;;;;;;;;;;5013786;28;20073;-65
2023/08/20 08:03:03;;;;;;;3.85;1.58;;;;;;;;;;5015431;28;20038;-65
2023/08/20 08:05:29;;;;;;;5.45;1.23;;;;;;;;;;5017040;28;20080;-65
2023/08/20 08:07:55;;;;;;;1.70;0.88;;;;;;;;;;5016303;28;20048;-65
2023/08/20 08:10:22;;;;;;;2.28;1.02;;;;;;;;;;5013846;28;20081;-65
2023/08/20 08:12:48;;;;;;;2.88;1.73;;;;;;;;;;5013289;28;20026;-65
2023/08/20 08:15:14;;;;;;;2.58;1.17;;;;;;;;;;5014428;28;20495;-65
2023/08/20 08:17:40;;;;;;;5.13;1.60;;;;;;;;;;5016590;28;20114;-65
2023/08/20 08:20:06;;;;;;;2.75;0.98;;;;;;;;;;5015726;28;20053;-65
2023/08/20 08:22:32;;;;;;;3.15;1.13;;;;;;;;;;5014384;28;20077;-65
2023/08/20 08:24:58;;;;;;;2.70;1.30;;;;;;;;;;5013403;28;20445;-65
2023/08/20 08:27:24;;;;;;;2.20;0.82;;;;;;;;;;5013784;28;20065;-65
2023/08/20 08:29:51;;;;;;;2.10;0.80;;;;;;;;;;5020801;28;20049;-65
2023/08/20 08:32:17;;;;;;;3.58;1.20;;;;;;;;;;5013559;28;20037;-65
2023/08/20 08:34:43;;;;;;;3.45;1.13;;;;;;;;;;5015327;28;20702;-65
2023/08/20 08:37:09;;;;;;;3.25;1.27;;;;;;;;;;5016511;28;20120;-65
2023/08/20 08:39:35;;;;;;;1.77;1.10;;;;;;;;;;5015631;28;20039;-65
2023/08/20 08:42:04;;;;;;;5.38;1.20;;;;;;;;;;5013204;28;20057;-65
2023/08/20 08:44:32;;;;;;;3.28;1.02;;;;;;;;;;5013437;28;20077;-65
2023/08/20 08:46:58;;;;;;;1.83;0.88;;;;;;;;;;5013208;28;20539;-65
2023/08/20 08:49:24;;;;;;;3.47;1.38;;;;;;;;;;5012415;28;20070;-65
2023/08/20 08:51:51;;;;;;;4.30;1.88;;;;;;;;;;5014339;28;20056;-65
2023/08/20 08:54:17;;;;;;;4.05;1.35;;;;;;;;;;5015904;28;20508;-65
2023/08/20 08:56:43;;;;;;;3.17;1.20;;;;;;;;;;5015369;28;20103;-65
2023/08/20 08:59:09;;;;;;;3.42;1.45;;;;;;;;;;5012889;28;20268;-65
2023/08/20 09:01:39;;;;;;;5.15;1.42;;;;;;;;;;5013347;28;20145;-65
2023/08/20 09:04:05;;;;;;;3.00;0.95;;;;;;;;;;5014263;28;20038;-65
2023/08/20 09:06:44;;;;;;;1.33;0.70;;;;;;;;;;5016593;28;20048;-65
2023/08/20 09:09:10;;;;;;;1.65;0.82;;;;;;;;;;5013220;28;20048;-65
2023/08/20 09:11:36;;;;;;;2.83;1.05;;;;;;;;;;5012670;28;20151;-65
2023/08/20 09:14:02;;;;;;;4.75;1.10;;;;;;;;;;5012725;28;20045;-65
2023/08/20 09:16:30;;;;;;;1.27;0.60;;;;;;;;;;5014983;28;20051;-65
2023/08/20 09:18:59;;;;;;;1.83;0.70;;;;;;;;;;5016122;28;20073;-65
2023/08/20 09:21:30;;;;;;;2.92;0.90;;;;;;;;;;5013826;28;20144;-65
2023/08/20 09:24:00;;;;;;;3.65;1.40;;;;;;;;;;5012108;28;20046;-65
2023/08/20 09:26:26;;;;;;;1.67;0.70;;;;;;;;;;5013682;28;20046;-65
2023/08/20 09:28:55;;;;;;;4.93;1.15;;;;;;;;;;5015409;28;20157;-65
2023/08/20 09:31:21;;;;;;;3.08;1.02;;;;;;;;;;5014846;28;20072;-65
2023/08/20 09:33:50;;;;;;;2.72;1.23;;;;;;;;;;5012351;28;20049;-65
2023/08/20 09:36:17;;;;;;;2.95;1.33;;;;;;;;;;5012268;28;20046;-65
2023/08/20 09:38:43;;;;;;;2.17;1.00;;;;;;;;;;5013938;28;20084;-65
2023/08/20 09:41:09;;;;;;;3.00;0.93;;;;;;;;;;5015416;28;20143;-65
2023/08/20 09:43:39;;;;;;;4.93;1.15;;;;;;;;;;5016050;28;20462;-65
2023/08/20 09:46:10;;;;;;;2.85;1.20;;;;;;;;;;5012288;28;20042;-65
2023/08/20 09:48:38;;;;;;;5.00;1.38;;;;;;;;;;5012654;28;20041;-65
2023/08/20 09:51:06;;;;;;;1.83;0.80;;;;;;;;;;5016053;28;20045;-65
2023/08/20 09:53:41;;;;;;;4.97;1.00;;;;;;;;;;5018635;28;20033;-65
2023/08/20 09:56:15;;;;;;;2.08;0.80;;;;;;;;;;5017657;28;20450;-65
2023/08/20 09:58:42;;;;;;;3.92;1.60;;;;;;;;;;5019700;28;20057;-65
2023/08/20 10:01:08;;;;;;;2.17;0.90;;;;;;;;;;5018900;28;20459;-65
2023/08/20 10:03:34;;;;;;;2.20;0.75;;;;;;;;;;5019982;28;20568;-65
2023/08/20 10:06:00;;;;;;;2.97;0.77;;;;;;;;;;5017789;28;20557;-65
2023/08/20 10:08:28;;;;;;;3.35;1.30;;;;;;;;;;5016079;28;20073;-65
2023/08/20 10:10:53;;;;;;;1.00;0.50;;;;;;;;;;5016135;28;20722;-65
2023/08/20 10:13:20;;;;;;;2.88;0.80;;;;;;;;;;5017952;28;20073;-65
2023/08/20 10:15:46;;;;;;;2.60;0.80;;;;;;;;;;5019209;28;20065;-65
2023/08/20 10:18:12;;;;;;;2.38;0.70;;;;;;;;;;5010680;28;20046;-65
2023/08/20 10:20:42;;;;;;;1.60;0.70;;;;;;;;;;5018964;28;20050;-65
2023/08/20 10:23:08;;;;;;;1.55;0.82;;;;;;;;;;5018956;28;20041;-65
2023/08/20 10:25:41;;;;;;;1.33;0.68;;;;;;;;;;5016975;28;20092;-65
2023/08/20 10:28:15;;;;;;;0.80;0.50;;;;;;;;;;5015024;28;20042;-65
2023/08/20 10:31:01;;;;;;;2.47;0.65;;;;;;;;;;5018723;28;20045;-65
2023/08/20 10:33:27;;;;;;;1.85;0.70;;;;;;;;;;5017894;28;20048;-65
2023/08/20 10:35:53;;;;;;;1.60;0.57;;;;;;;;;;5015759;28;20387;-65
2023/08/20 10:38:19;;;;;;;3.42;0.95;;;;;;;;;;5015593;28;20511;-65
2023/08/20 10:40:49;;;;;;;2.35;1.17;;;;;;;;;;5017067;28;20037;-65
2023/08/20 10:43:27;;;;;;;3.88;1.23;;;;;;;;;;5018534;28;20033;-65
2023/08/20 10:46:03;;;;;;;1.98;0.68;;;;;;;;;;5016175;28;20111;-65
2023/08/20 10:48:30;;;;;;;2.47;0.73;;;;;;;;;;5015147;28;20121;-65
2023/08/20 10:50:56;;;;;;;2.63;1.23;;;;;;;;;;5017593;28;20686;-65
2023/08/20 10:53:23;;;;;;;1.27;0.70;;;;;;;;;;5018114;28;20041;-65
2023/08/20 10:55:49;;;;;;;1.77;0.60;;;;;;;;;;5016699;28;20145;-65
2023/08/20 10:58:16;;;;;;;0.77;0.47;;;;;;;;;;5015053;28;20045;-65
2023/08/20 11:00:42;;;;;;;1.90;0.70;;;;;;;;;;5015503;28;20042;-65
2023/08/20 11:03:09;;;;;;;0.88;0.50;;;;;;;;;;5016905;28;20045;-65
2023/08/20 11:05:35;;;;;;;2.50;1.02;;;;;;;;;;5019118;28;20045;-65
2023/08/20 11:08:03;;;;;;;2.88;1.05;;;;;;;;;;5017527;28;20049;-65
2023/08/20 11:10:29;;;;;;;1.77;0.75;;;;;;;;;;5014559;28;20116;-65
2023/08/20 11:12:55;;;;;;;1.08;0.52;;;;;;;;;;5014742;28;20054;-65
2023/08/20 11:15:21;;;;;;;1.25;0.47;;;;;;;;;;5016671;28;20102;-65
2023/08/20 11:17:48;;;;;;;1.23;0.60;;;;;;;;;;5015966;28;20048;-65
2023/08/20 11:20:15;;;;;;;1.42;0.50;;;;;;;;;;5016036;28;20073;-65
2023/08/20 11:22:41;;;;;;;3.28;0.90;;;;;;;;;;5014544;28;20111;-65
2023/08/20 11:25:12;;;;;;;1.30;0.60;;;;;;;;;;5014189;28;20462;-65
2023/08/20 11:27:41;;;;;;;2.63;0.75;;;;;;;;;;5017474;28;20045;-65
2023/08/20 11:30:07;;;;;;;3.65;0.90;;;;;;;;;;5017219;28;20250;-65
2023/08/20 11:32:33;;;;;;;2.15;0.98;;;;;;;;;;5016496;28;20204;-65
2023/08/20 11:35:00;;;;;;;1.63;0.70;;;;;;;;;;5014524;28;20080;-65
2023/08/20 11:37:27;;;;;;;1.50;0.55;;;;;;;;;;5013879;28;20050;-65
2023/08/20 11:39:53;;;;;;;1.80;0.70;;;;;;;;;;5014565;28;20128;-65
2023/08/20 11:42:19;;;;;;;1.45;0.88;;;;;;;;;;5014174;28;20129;-65
2023/08/20 11:44:48;;;;;;;2.10;0.70;;;;;;;;;;5015664;28;20467;-65
2023/08/20 11:47:15;;;;;;;0.90;0.60;;;;;;;;;;5017254;28;20470;-65
2023/08/20 11:49:41;;;;;;;3.33;0.60;;;;;;;;;;5009206;28;20050;-65
2023/08/20 11:52:07;;;;;;;1.13;0.50;;;;;;;;;;5016713;28;20128;-65
2023/08/20 11:54:33;;;;;;;1.30;0.65;;;;;;;;;;5018225;28;20049;-65
2023/08/20 11:57:03;;;;;;;0.90;0.43;;;;;;;;;;5013966;28;20142;-65
2023/08/20 11:59:30;;;;;;;1.80;0.70;;;;;;;;;;5014112;28;20050;-65
2023/08/20 12:01:57;;;;;;;2.78;1.10;;;;;;;;;;5015024;28;20049;-65
2023/08/20 12:04:26;;;;;;;1.25;0.60;;;;;;;;;;5017278;28;20049;-65
2023/08/20 12:07:14;;;;;;;1.63;0.60;;;;;;;;;;5016441;28;20140;-65
2023/08/20 12:09:40;;;;;;;1.48;0.85;;;;;;;;;;5013971;28;20088;-65
2023/08/20 12:12:07;;;;;;;1.50;0.55;;;;;;;;;;5013926;28;20050;-65
2023/08/20 12:14:34;;;;;;;1.58;0.60;;;;;;;;;;5017071;28;20091;-65
2023/08/20 12:17:00;;;;;;;1.70;0.80;;;;;;;;;;5016886;28;20392;-65
2023/08/20 12:19:26;;;;;;;0.93;0.50;;;;;;;;;;5013754;28;20096;-65
2023/08/20 12:21:52;;;;;;;1.27;0.55;;;;;;;;;;5013679;28;20049;-65
2023/08/20 12:24:21;;;;;;;0.75;0.32;;;;;;;;;;5014143;28;20496;-65
2023/08/20 12:26:47;;;;;;;2.40;1.00;;;;;;;;;;5016446;28;20045;-65
2023/08/20 12:29:13;;;;;;;1.27;0.70;;;;;;;;;;5014766;28;20111;-65
2023/08/20 12:31:40;;;;;;;1.95;0.77;;;;;;;;;;5013723;28;20055;-65
2023/08/20 12:34:07;;;;;;;2.03;0.60;;;;;;;;;;5013060;28;20049;-65
2023/08/20 12:36:34;;;;;;;1.60;0.40;;;;;;;;;;5015140;28;20103;-65
2023/08/20 12:39:00;;;;;;;1.60;0.75;;;;;;;;;;5016281;28;20565;-65
2023/08/20 12:41:26;;;;;;;1.20;0.50;;;;;;;;;;5016103;28;20116;-65
2023/08/20 12:43:52;;;;;;;1.85;0.70;;;;;;;;;;5013912;28;20053;-65
2023/08/20 12:46:18;;;;;;;0.93;0.60;;;;;;;;;;5013409;28;20044;-65
2023/08/20 12:48:44;;;;;;;0.70;0.45;;;;;;;;;;5013234;28;20096;-65
2023/08/20 12:51:13;;;;;;;0.50;0.40;;;;;;;;;;5015884;28;20460;-65
2023/08/20 12:53:39;;;;;;;2.22;0.75;;;;;;;;;;5016525;28;20083;-65
2023/08/20 12:56:05;;;;;;;0.82;0.50;;;;;;;;;;5012600;28;20066;-65
2023/08/20 12:58:31;;;;;;;1.30;0.70;;;;;;;;;;5019198;28;20064;-65
2023/08/20 13:00:57;;;;;;;3.28;0.52;;;;;;;;;;5014402;28;20487;-65
2023/08/20 13:03:23;;;;;;;2.50;0.45;;;;;;;;;;5011903;28;20030;-65
2023/08/20 13:05:49;;;;;;;1.58;0.63;;;;;;;;;;5013056;28;20200;-65
2023/08/20 13:08:16;;;;;;;2.75;0.93;;;;;;;;;;5014721;28;20042;-65
2023/08/20 13:10:42;;;;;;;1.90;0.68;;;;;;;;;;5016101;28;20049;-65
2023/08/20 13:13:10;;;;;;;1.65;0.57;;;;;;;;;;5014932;28;20041;-65
2023/08/20 13:15:37;;;;;;;1.60;0.45;;;;;;;;;;5012691;28;20038;-65
2023/08/20 13:18:04;;;;;;;1.65;0.60;;;;;;;;;;5013061;28;20069;-65
2023/08/20 13:20:30;;;;;;;3.35;0.80;;;;;;;;;;5015737;28;20057;-65
2023/08/20 13:22:56;;;;;;;1.40;0.40;;;;;;;;;;5015341;28;20052;-65
2023/08/20 13:25:22;;;;;;;0.88;0.47;;;;;;;;;;5014641;28;20067;-65
2023/08/20 13:27:48;;;;;;;1.40;0.50;;;;;;;;;;5012019;28;20041;-65
2023/08/20 13:30:14;;;;;;;1.02;0.45;;;;;;;;;;5012156;28;20038;-65
2023/08/20 13:32:40;;;;;;;1.08;0.50;;;;;;;;;;5015572;28;20099;-65
2023/08/20 13:35:07;;;;;;;0.95;0.50;;;;;;;;;;5016288;28;20045;-65
2023/08/20 13:37:34;;;;;;;1.33;0.43;;;;;;;;;;5014819;28;20056;-65
2023/08/20 13:40:01;;;;;;;1.33;0.50;;;;;;;;;;5012877;28;20050;-65
2023/08/20 13:42:27;;;;;;;0.52;0.30;;;;;;;;;;5013004;28;20042;-65
2023/08/20 13:44:53;;;;;;;0.82;0.40;;;;;;;;;;5014538;28;20587;-65
2023/08/20 13:47:19;;;;;;;1.00;0.30;;;;;;;;;;5015865;28;20373;-65
2023/08/20 13:49:45;;;;;;;0.75;0.43;;;;;;;;;;5007356;28;20133;-65
2023/08/20 13:52:11;;;;;;;0.43;0.35;;;;;;;;;;5014780;28;20463;-65
2023/08/20 13:54:37;;;;;;;1.00;0.40;;;;;;;;;;5016003;28;20128;-65
2023/08/20 13:57:04;;;;;;;0.65;0.30;;;;;;;;;;5012978;28;20064;-65
2023/08/20 13:59:33;;;;;;;2.30;0.50;;;;;;;;;;5011712;28;20582;-65
2023/08/20 14:01:59;;;;;;;0.85;0.20;;;;;;;;;;5013099;28;20049;-65
2023/08/20 14:04:25;;;;;;;0.22;0.22;;;;;;;;;;5015391;28;20064;-65
2023/08/20 14:06:51;;;;;;;0.35;0.20;;;;;;;;;;5015152;28;20085;-65
2023/08/20 14:09:18;;;;;;;1.48;0.40;;;;;;;;;;5012189;28;20127;-65
2023/08/20 14:11:44;;;;;;;2.50;0.32;;;;;;;;;;5011736;28;20049;-65
2023/08/20 14:14:10;;;;;;;1.05;0.65;;;;;;;;;;5013111;28;20050;-65
2023/08/20 14:16:37;;;;;;;1.27;0.60;;;;;;;;;;5015923;28;20124;-65
2023/08/20 14:19:03;;;;;;;1.38;0.47;;;;;;;;;;5014869;28;20053;-65
2023/08/20 14:21:29;;;;;;;0.90;0.60;;;;;;;;;;5012555;28;20084;-65
2023/08/20 14:23:55;;;;;;;0.40;0.30;;;;;;;;;;5012012;28;20073;-65
2023/08/20 14:26:21;;;;;;;1.58;0.38;;;;;;;;;;5012264;28;20128;-65
2023/08/20 14:28:47;;;;;;;0.80;0.30;;;;;;;;;;5015637;28;20504;-65
2023/08/20 14:31:13;;;;;;;0.45;0.30;;;;;;;;;;5016761;28;20042;-65
2023/08/20 14:33:39;;;;;;;1.15;0.40;;;;;;;;;;5013716;28;20042;-65
2023/08/20 14:36:05;;;;;;;0.82;0.50;;;;;;;;;;5012648;28;20100;-65
2023/08/20 14:38:32;;;;;;;1.27;0.30;;;;;;;;;;5013740;28;20504;-65
2023/08/20 14:41:01;;;;;;;1.73;0.50;;;;;;;;;;5017918;28;20050;-65